^^
Meteo Knjazevac Station Historical Data
Daily Summary for May 8, 2021 Units:  English    Metric   Both
Daily Weekly Monthly Yearly Custom
  High: Low: Average:
Temperature: 98.8 °F 55.9 °F 77 °F
Dew Point: 67.9 °F 53 °F 60.8 °F
Humidity: 91% 33% 62%
Wind Speed: 6mph 0mph 1.8mph
Wind Gust: 10mph - -
Wind- - SW
Pressure: 30.06 in 29.99 in -
Precipitation: 0.00 in    
Historical Graphs
 
 
Tabular Data for May 8, 2021
Time Temperature Dew Point Pressure Wind Wind Speed Wind Gust Humidity Rainfall Rate (Hourly) solar Conditions
00:00 63.7 °F 57 °F 30.01 in WSW 2 mph 5 mph 79% 0.00 in 0 W/m2
00:10 63.4 °F 56.8 °F 30.02 in West 2 mph 3 mph 79% 0.00 in 0 W/m2
00:20 62.8 °F 56.5 °F 30.02 in WSW 2 mph 5 mph 80% 0.00 in 0 W/m2
00:30 62.2 °F 56 °F 30.02 in SW 1 mph 3 mph 80% 0.00 in 0 W/m2
00:40 61.7 °F 55.8 °F 30.02 in West 3 mph 5 mph 81% 0.00 in 0 W/m2
00:50 61.4 °F 55.5 °F 30.02 in West 3 mph 5 mph 81% 0.00 in 0 W/m2
01:00 61.3 °F 55.5 °F 30.02 in West 3 mph 5 mph 81% 0.00 in 0 W/m2
01:10 61.3 °F 56.1 °F 30.02 in WNW 2 mph 4 mph 83% 0.00 in 0 W/m2
01:20 61.3 °F 56.1 °F 30.03 in WNW 2 mph 6 mph 83% 0.00 in 0 W/m2
01:30 61 °F 55.8 °F 30.03 in West 2 mph 5 mph 83% 0.00 in 0 W/m2
01:40 60.8 °F 55.6 °F 30.03 in Calm   5 mph 83% 0.00 in 0 W/m2
01:50 60.3 °F 55.1 °F 30.03 in WSW 2 mph 2 mph 83% 0.00 in 0 W/m2
02:00 59.6 °F 54.8 °F 30.03 in West 3 mph 6 mph 84% 0.00 in 0 W/m2
02:10 59.5 °F 55 °F 30.03 in WNW 3 mph 6 mph 85% 0.00 in 0 W/m2
02:20 59.5 °F 55 °F 30.03 in West 2 mph 5 mph 85% 0.00 in 0 W/m2
02:30 59.5 °F 55 °F 30.03 in West 2 mph 4 mph 85% 0.00 in 0 W/m2
02:40 59.2 °F 54.7 °F 30.03 in West 3 mph 6 mph 85% 0.00 in 0 W/m2
02:50 58.8 °F 54.3 °F 30.03 in West 1 mph 6 mph 85% 0.00 in 0 W/m2
03:00 58.5 °F 54.3 °F 30.04 in WSW 2 mph 3 mph 86% 0.00 in 0 W/m2
03:10 58.1 °F 53.9 °F 30.03 in West 3 mph 5 mph 86% 0.00 in 0 W/m2
03:20 58 °F 53.8 °F 30.03 in West 2 mph 5 mph 86% 0.00 in 0 W/m2
03:30 57.9 °F 54.4 °F 30.04 in West 3 mph 6 mph 88% 0.00 in 0 W/m2
03:40 57.9 °F 54.4 °F 30.04 in West 3 mph 6 mph 88% 0.00 in 0 W/m2
03:50 57.7 °F 54.2 °F 30.03 in WSW 3 mph 5 mph 88% 0.00 in 0 W/m2
04:00 57.4 °F 53.9 °F 30.03 in West 2 mph 5 mph 88% 0.00 in 0 W/m2
04:10 57 °F 53.8 °F 30.04 in WSW 1 mph 3 mph 89% 0.00 in 0 W/m2
04:20 56.8 °F 53.6 °F 30.03 in Calm   3 mph 89% 0.00 in 0 W/m2
04:30 56.8 °F 53.6 °F 30.04 in WNW 1 mph 3 mph 89% 0.00 in 0 W/m2
04:40 56.8 °F 53.6 °F 30.04 in NW 1 mph 3 mph 89% 0.00 in 0 W/m2
04:50 56.8 °F 53.6 °F 30.04 in West 1 mph 3 mph 89% 0.00 in 0 W/m2
05:00 56.7 °F 53.5 °F 30.04 in West 2 mph 3 mph 89% 0.00 in 0 W/m2
05:10 56.7 °F 53.8 °F 30.05 in WNW 1 mph 5 mph 90% 0.00 in 0 W/m2
05:20 56.6 °F 53.4 °F 30.05 in West 1 mph 2 mph 89% 0.00 in 0 W/m2
05:30 56.3 °F 53.4 °F 30.05 in West 2 mph 3 mph 90% 0.00 in 5 W/m2
05:40 56.3 °F 53.4 °F 30.05 in WNW 1 mph 3 mph 90% 0.00 in 11 W/m2
05:50 56.1 °F 53.2 °F 30.05 in West 1 mph 2 mph 90% 0.00 in 19 W/m2
06:00 56 °F 53.1 °F 30.06 in West 1 mph 2 mph 90% 0.00 in 27 W/m2
06:10 55.9 °F 53 °F 30.06 in West 1 mph 3 mph 90% 0.00 in 54 W/m2
06:20 55.9 °F 53.4 °F 30.06 in West 2 mph 4 mph 91% 0.00 in 76 W/m2
06:30 56.1 °F 53.5 °F 30.06 in West 3 mph 5 mph 91% 0.00 in 100 W/m2
06:40 56.4 °F 53.8 °F 30.06 in West 3 mph 5 mph 91% 0.00 in 127 W/m2
06:50 57 °F 54.4 °F 30.06 in West 3 mph 5 mph 91% 0.00 in 155 W/m2
07:00 57.5 °F 54.9 °F 30.06 in West 2 mph 4 mph 91% 0.00 in 184 W/m2
07:10 57.9 °F 55 °F 30.06 in NW 2 mph 4 mph 90% 0.00 in 215 W/m2
07:20 58.6 °F 55.7 °F 30.06 in West 1 mph 2 mph 90% 0.00 in 247 W/m2
07:30 59.4 °F 56.4 °F 30.06 in West 3 mph 5 mph 90% 0.00 in 280 W/m2
07:40 60.2 °F 57 °F 30.06 in WNW 2 mph 5 mph 89% 0.00 in 314 W/m2
07:50 61.3 °F 58.4 °F 30.06 in West 1 mph 4 mph 90% 0.00 in 349 W/m2
08:00 62.2 °F 59 °F 30.06 in WSW 2 mph 3 mph 89% 0.00 in 385 W/m2
08:10 63.3 °F 60 °F 30.06 in West 1 mph 3 mph 89% 0.00 in 418 W/m2
08:20 64.4 °F 60.7 °F 30.06 in West 1 mph 3 mph 88% 0.00 in 461 W/m2
08:30 65.4 °F 60.8 °F 30.06 in West 1 mph 3 mph 85% 0.00 in 498 W/m2
08:40 66.7 °F 60.7 °F 30.06 in WNW 1 mph 3 mph 81% 0.00 in 528 W/m2
08:50 68.1 °F 61 °F 30.06 in SW 1 mph 3 mph 78% 0.00 in 557 W/m2
09:00 70.1 °F 61.8 °F 30.06 in SW 1 mph 3 mph 75% 0.00 in 585 W/m2
09:10 72.8 °F 62.5 °F 30.06 in WSW 1 mph 3 mph 70% 0.00 in 613 W/m2
09:20 75.3 °F 64 °F 30.06 in South 1 mph 4 mph 68% 0.00 in 639 W/m2
09:30 77.4 °F 63.8 °F 30.05 in SSW 1 mph 4 mph 63% 0.00 in 665 W/m2
09:40 79.1 °F 64 °F 30.06 in South 2 mph 5 mph 60% 0.00 in 690 W/m2
09:50 80.6 °F 64.9 °F 30.06 in Calm   4 mph 59% 0.00 in 714 W/m2
10:00 81.9 °F 65.1 °F 30.06 in SSE 1 mph 3 mph 57% 0.00 in 736 W/m2
10:10 83.1 °F 64.7 °F 30.05 in Calm   3 mph 54% 0.00 in 758 W/m2
10:20 84 °F 67.1 °F 30.05 in Calm   5 mph 57% 0.00 in 778 W/m2
10:30 84.9 °F 65.8 °F 30.05 in NE 2 mph 7 mph 53% 0.00 in 798 W/m2
10:40 85.5 °F 66.9 °F 30.05 in North 2 mph 6 mph 54% 0.00 in 815 W/m2
10:50 86.5 °F 67.4 °F 30.05 in NNE 2 mph 6 mph 53% 0.00 in 175 W/m2
11:00 87.1 °F 67.3 °F 30.05 in NNE 1 mph 6 mph 52% 0.00 in 847 W/m2
11:10 88 °F 66.4 °F 30.04 in North 3 mph 9 mph 49% 0.00 in 458 W/m2
11:20 88.5 °F 65.7 °F 30.04 in NNE 2 mph 8 mph 47% 0.00 in 873 W/m2
11:30 89.2 °F 65.1 °F 30.04 in NNE 1 mph 7 mph 45% 0.00 in 884 W/m2
11:40 89.6 °F 65.4 °F 30.04 in North 2 mph 6 mph 45% 0.00 in 893 W/m2
11:50 90.3 °F 66.1 °F 30.04 in NE 3 mph 7 mph 45% 0.00 in 901 W/m2
12:00 91 °F 66.1 °F 30.04 in ENE 3 mph 7 mph 44% 0.00 in 907 W/m2
12:10 91.2 °F 64.9 °F 30.04 in North 3 mph 5 mph 42% 0.00 in 912 W/m2
12:20 91.8 °F 66.1 °F 30.04 in North 1 mph 8 mph 43% 0.00 in 915 W/m2
12:30 92.5 °F 64.6 °F 30.03 in NNE 2 mph 7 mph 40% 0.00 in 916 W/m2
12:40 92.8 °F 65 °F 30.03 in NNE 2 mph 6 mph 40% 0.00 in 916 W/m2
12:50 93.4 °F 65.4 °F 30.03 in East 5 mph 7 mph 40% 0.00 in 915 W/m2
13:00 93.9 °F 65.2 °F 30.02 in North 2 mph 8 mph 39% 0.00 in 912 W/m2
13:10 94.5 °F 65.7 °F 30.02 in North 3 mph 8 mph 39% 0.00 in 907 W/m2
13:20 94.5 °F 64.9 °F 30.02 in NW 5 mph 9 mph 38% 0.00 in 901 W/m2
13:30 94.8 °F 64.5 °F 30.02 in WSW 2 mph 7 mph 37% 0.00 in 893 W/m2
13:40 95 °F 64.6 °F 30.02 in WSW 2 mph 6 mph 37% 0.00 in 884 W/m2
13:50 95 °F 64.6 °F 30.02 in WNW 2 mph 7 mph 37% 0.00 in 873 W/m2
14:00 95.5 °F 65.1 °F 30.01 in ENE 5 mph 9 mph 37% 0.00 in 860 W/m2
14:10 95.7 °F 63.7 °F 30.01 in SSE 6 mph 10 mph 35% 0.00 in 847 W/m2
14:20 95.9 °F 63.8 °F 30.01 in East 2 mph 6 mph 35% 0.00 in 831 W/m2
14:30 96.4 °F 65.9 °F 30.01 in East 3 mph 6 mph 37% 0.00 in 815 W/m2
14:40 96.4 °F 64.3 °F 30.01 in SSE 5 mph 9 mph 35% 0.00 in 797 W/m2
14:50 96.4 °F 63.5 °F 30.01 in SSE 5 mph 8 mph 34% 0.00 in 778 W/m2
15:00 96.6 °F 63.6 °F 30.00 in SSW 6 mph 7 mph 34% 0.00 in 757 W/m2
15:10 97 °F 64.8 °F 30.00 in SSW 2 mph 7 mph 35% 0.00 in 736 W/m2
15:20 97.5 °F 64.4 °F 30.00 in ESE 3 mph 7 mph 34% 0.00 in 713 W/m2
15:30 97.7 °F 64.6 °F 30.00 in SE 1 mph 7 mph 34% 0.00 in 689 W/m2
15:40 97.9 °F 65.6 °F 30.00 in WSW 2 mph 5 mph 35% 0.00 in 664 W/m2
15:50 97.9 °F 63.9 °F 30.00 in SSW 1 mph 6 mph 33% 0.00 in 639 W/m2
16:00 98.1 °F 64.9 °F 30.00 in South 3 mph 5 mph 34% 0.00 in 612 W/m2
16:10 98.1 °F 64.9 °F 30.00 in SSW 1 mph 5 mph 34% 0.00 in 584 W/m2
16:20 98.1 °F 64.9 °F 30.00 in NW 2 mph 6 mph 34% 0.00 in 556 W/m2
16:30 98.2 °F 64.2 °F 30.00 in SW 1 mph 6 mph 33% 0.00 in 527 W/m2
16:40 98.2 °F 65.1 °F 30.00 in SE 1 mph 5 mph 34% 0.00 in 497 W/m2
16:50 98.6 °F 64.5 °F 30.00 in SW 1 mph 4 mph 33% 0.00 in 467 W/m2
17:00 98.4 °F 64.4 °F 30.00 in SW 1 mph 5 mph 33% 0.00 in 437 W/m2
17:10 98.8 °F 65.5 °F 30.00 in WSW 1 mph 4 mph 34% 0.00 in 399 W/m2
17:20 98.2 °F 64.2 °F 30.00 in WSW 2 mph 3 mph 33% 0.00 in 365 W/m2
17:30 98.2 °F 65.1 °F 30.00 in SW 2 mph 5 mph 34% 0.00 in 331 W/m2
17:50 97.9 °F 63.9 °F 29.99 in WNW 2 mph 3 mph 33% 0.00 in 261 W/m2
18:00 97.7 °F 63.7 °F 29.99 in WSW 1 mph 3 mph 33% 0.00 in 228 W/m2
18:10 97.5 °F 63.6 °F 29.99 in SW 2 mph 3 mph 33% 0.00 in 199 W/m2
18:20 97.3 °F 63.4 °F 29.99 in WSW 1 mph 3 mph 33% 0.00 in 168 W/m2
18:30 96.8 °F 63 °F 30.00 in SW 1 mph 4 mph 33% 0.00 in 140 W/m2
18:40 96.5 °F 63.5 °F 29.99 in SSW 1 mph 2 mph 34% 0.00 in 111 W/m2
18:50 95.4 °F 65.7 °F 30.00 in South 1 mph 3 mph 38% 0.00 in 85 W/m2
19:00 94.5 °F 67.8 °F 30.00 in Calm   2 mph 42% 0.00 in 62 W/m2
19:10 93 °F 67.9 °F 30.00 in SW 1 mph 2 mph 44% 0.00 in 42 W/m2
19:20 91.2 °F 66.9 °F 30.00 in SW 1 mph 3 mph 45% 0.00 in 26 W/m2
19:30 89.4 °F 66.5 °F 30.00 in South 1 mph 5 mph 47% 0.00 in 14 W/m2
19:40 88.3 °F 66.8 °F 30.00 in Calm   2 mph 49% 0.00 in 7 W/m2
19:50 87.1 °F 66.2 °F 30.01 in East 2 mph 3 mph 50% 0.00 in 0 W/m2
20:00 85.7 °F 66.6 °F 30.01 in SW 1 mph 2 mph 53% 0.00 in 0 W/m2
20:10 84.6 °F 65.5 °F 30.01 in SSW 2 mph 4 mph 53% 0.00 in 0 W/m2
20:20 83.1 °F 64.8 °F 30.02 in WSW 2 mph 4 mph 54% 0.00 in 0 W/m2
20:30 82.1 °F 64.3 °F 30.02 in WSW 2 mph 4 mph 55% 0.00 in 0 W/m2
20:40 80.8 °F 64.1 °F 30.03 in WSW 3 mph 4 mph 57% 0.00 in 0 W/m2
20:50 79.7 °F 63.1 °F 30.03 in WSW 2 mph 5 mph 57% 0.00 in 0 W/m2
21:00 78.4 °F 61.9 °F 30.04 in WSW 2 mph 5 mph 57% 0.00 in 0 W/m2
21:10 77.5 °F 61.6 °F 30.04 in West 3 mph 6 mph 58% 0.00 in 0 W/m2
21:20 77 °F 60.6 °F 30.04 in West 3 mph 5 mph 57% 0.00 in 0 W/m2
21:30 76.3 °F 60.9 °F 30.04 in West 2 mph 4 mph 59% 0.00 in 0 W/m2
21:40 75.8 °F 60.9 °F 30.04 in West 2 mph 5 mph 60% 0.00 in 0 W/m2
21:50 75 °F 61.6 °F 30.04 in WSW 1 mph 2 mph 63% 0.00 in 0 W/m2
22:00 74.5 °F 61.1 °F 30.04 in Calm   2 mph 63% 0.00 in 0 W/m2
22:10 74.1 °F 61.2 °F 30.04 in WNW 1 mph 2 mph 64% 0.00 in 0 W/m2
22:20 73.4 °F 60.9 °F 30.04 in West 1 mph 2 mph 65% 0.00 in 0 W/m2
22:30 73 °F 60.6 °F 30.04 in Calm   3 mph 65% 0.00 in 0 W/m2
22:40 72.7 °F 60.2 °F 30.04 in Calm   2 mph 65% 0.00 in 0 W/m2
22:50 72.3 °F 60.7 °F 30.04 in Calm   1 mph 67% 0.00 in 0 W/m2
23:00 71.8 °F 60.7 °F 30.04 in NW 1 mph 2 mph 68% 0.00 in 0 W/m2
23:10 71.1 °F 60.4 °F 30.05 in West 1 mph 3 mph 69% 0.00 in 0 W/m2
23:20 70.5 °F 59.8 °F 30.05 in Calm   5 mph 69% 0.00 in 0 W/m2
23:30 70 °F 59.7 °F 30.05 in WSW 1 mph 3 mph 70% 0.00 in 0 W/m2
23:40 69.3 °F 59.8 °F 30.05 in WSW 1 mph 2 mph 72% 0.00 in 0 W/m2
23:50 68.9 °F 59.9 °F 30.06 in WNW 3 mph 5 mph 73% 0.00 in 0 W/m2
Knjazevac, Serbia
Compliments of Weather Underground - 2 mb